createdAt,value
2022-07-28T00:00:03.061Z,0.00
2022-07-28T00:01:03.090Z,0.00
2022-07-28T00:02:03.064Z,0.00
2022-07-28T00:03:03.239Z,0.00
2022-07-28T00:04:03.119Z,0.00
2022-07-28T00:05:03.060Z,0.00
2022-07-28T00:06:03.048Z,0.00
2022-07-28T00:07:02.995Z,0.00
2022-07-28T00:08:02.998Z,0.00
2022-07-28T00:09:02.983Z,0.00
2022-07-28T00:10:02.989Z,0.00
2022-07-28T00:11:02.936Z,0.00
2022-07-28T00:12:02.909Z,0.00
2022-07-28T00:13:02.888Z,0.00
2022-07-28T00:14:02.820Z,0.00
2022-07-28T00:15:02.815Z,0.00
2022-07-28T00:16:02.876Z,0.00
2022-07-28T00:17:02.763Z,0.00
2022-07-28T00:18:02.759Z,0.00
2022-07-28T00:19:02.786Z,0.00
2022-07-28T00:20:02.744Z,0.00
2022-07-28T00:21:02.778Z,0.00
2022-07-28T00:22:02.708Z,0.00
2022-07-28T00:23:02.728Z,0.00
2022-07-28T00:24:02.725Z,0.00
2022-07-28T00:25:02.660Z,0.00
2022-07-28T00:26:02.644Z,0.00
2022-07-28T00:27:02.629Z,0.00
2022-07-28T00:28:02.682Z,0.00
2022-07-28T00:29:02.668Z,0.00
2022-07-28T00:30:02.605Z,0.00
2022-07-28T00:31:05.648Z,0.00
2022-07-28T00:32:03.648Z,0.00
2022-07-28T00:33:02.633Z,0.00
2022-07-28T00:34:02.593Z,0.00
2022-07-28T00:35:02.644Z,0.00
2022-07-28T00:36:02.585Z,0.00
2022-07-28T00:37:02.597Z,0.00
2022-07-28T00:38:02.558Z,0.00
2022-07-28T00:39:02.524Z,0.00
2022-07-28T00:40:02.630Z,0.00
2022-07-28T00:41:02.488Z,0.00
2022-07-28T00:42:02.504Z,0.00
2022-07-28T00:43:03.546Z,0.00
2022-07-28T00:44:02.467Z,0.00
2022-07-28T00:45:02.476Z,0.00
2022-07-28T00:46:02.405Z,0.00
2022-07-28T00:47:02.416Z,0.00
2022-07-28T00:48:02.382Z,0.00
2022-07-28T00:49:02.452Z,0.00
2022-07-28T00:50:02.434Z,0.00
2022-07-28T00:51:02.358Z,0.00
2022-07-28T00:52:02.441Z,0.00
2022-07-28T00:53:02.355Z,0.00
2022-07-28T00:54:02.314Z,0.00
2022-07-28T00:55:02.297Z,0.00
2022-07-28T00:56:05.996Z,0.00
2022-07-28T00:57:02.282Z,0.00
2022-07-28T00:58:02.261Z,0.00
2022-07-28T00:59:02.265Z,0.00
2022-07-28T01:00:02.259Z,0.00
2022-07-28T01:01:02.257Z,0.00
2022-07-28T01:02:02.447Z,0.00
2022-07-28T01:03:02.271Z,0.00
2022-07-28T01:04:02.209Z,0.00
2022-07-28T01:05:02.274Z,0.00
2022-07-28T01:06:02.241Z,0.00
2022-07-28T01:07:02.155Z,0.00
2022-07-28T01:08:02.230Z,0.00
2022-07-28T01:09:02.694Z,0.00
2022-07-28T01:10:02.165Z,0.00
2022-07-28T01:11:02.131Z,0.00
2022-07-28T01:12:02.110Z,0.00
2022-07-28T01:13:02.078Z,0.00
2022-07-28T01:14:02.098Z,0.00
2022-07-28T01:15:02.081Z,0.00
2022-07-28T01:16:02.186Z,0.00
2022-07-28T01:17:02.295Z,0.00
2022-07-28T01:18:02.032Z,0.00
2022-07-28T01:19:02.015Z,0.00
2022-07-28T01:20:02.025Z,0.00
2022-07-28T01:21:02.630Z,0.00
2022-07-28T01:22:02.067Z,0.00
2022-07-28T01:23:02.023Z,0.00
2022-07-28T01:24:01.997Z,0.00
2022-07-28T01:25:01.998Z,0.00
2022-07-28T01:26:02.016Z,0.00
2022-07-28T01:27:02.056Z,0.00
2022-07-28T01:28:01.933Z,0.00
2022-07-28T01:29:01.903Z,0.00
2022-07-28T01:30:01.943Z,0.00
2022-07-28T01:31:01.991Z,0.00
2022-07-28T01:32:01.898Z,0.00
2022-07-28T01:33:01.891Z,0.00
2022-07-28T01:34:01.866Z,0.00
2022-07-28T01:35:01.853Z,0.00
2022-07-28T01:36:01.855Z,0.00
2022-07-28T01:37:01.832Z,0.00
2022-07-28T01:38:01.825Z,0.00
2022-07-28T01:39:01.824Z,0.00
2022-07-28T01:40:02.769Z,0.00
2022-07-28T01:41:01.797Z,0.00
2022-07-28T01:42:02.625Z,0.00
2022-07-28T01:43:01.785Z,0.00
2022-07-28T01:44:01.865Z,0.00
2022-07-28T01:45:01.725Z,0.00
2022-07-28T01:46:01.904Z,0.00
2022-07-28T01:47:01.732Z,0.00
2022-07-28T01:48:01.723Z,0.00
2022-07-28T01:49:01.779Z,0.00
2022-07-28T01:50:02.263Z,0.00
2022-07-28T01:51:01.700Z,0.00
2022-07-28T01:52:01.657Z,0.00
2022-07-28T01:53:01.680Z,0.00
2022-07-28T01:54:01.689Z,0.00
2022-07-28T01:55:01.637Z,0.00
2022-07-28T01:56:01.665Z,0.00
2022-07-28T01:57:01.637Z,0.00
2022-07-28T01:58:01.612Z,0.00
2022-07-28T01:59:01.624Z,0.00
2022-07-28T02:00:01.619Z,0.00
2022-07-28T02:01:01.581Z,0.00
2022-07-28T02:02:01.660Z,0.00
2022-07-28T02:03:01.582Z,0.00
2022-07-28T02:04:01.622Z,0.00
2022-07-28T02:05:01.661Z,0.00
2022-07-28T02:06:01.646Z,0.00
2022-07-28T02:07:01.628Z,0.00
2022-07-28T02:08:01.774Z,0.00
2022-07-28T02:09:01.567Z,0.00
2022-07-28T02:10:01.584Z,0.00
2022-07-28T02:11:02.552Z,0.00
2022-07-28T02:12:01.569Z,0.00
2022-07-28T02:13:01.537Z,0.00
2022-07-28T02:14:01.569Z,0.00
2022-07-28T02:15:01.503Z,0.00
2022-07-28T02:16:01.575Z,0.00
2022-07-28T02:17:01.481Z,0.00
2022-07-28T02:18:01.477Z,0.00
2022-07-28T02:19:01.541Z,0.00
2022-07-28T02:20:01.528Z,0.00
2022-07-28T02:21:01.438Z,0.00
2022-07-28T02:22:01.419Z,0.00
2022-07-28T02:23:01.378Z,0.00
2022-07-28T02:24:01.446Z,0.00
2022-07-28T02:25:01.414Z,0.00
2022-07-28T02:26:01.346Z,0.00
2022-07-28T02:27:01.377Z,0.00
2022-07-28T02:28:01.426Z,0.00
2022-07-28T02:29:01.361Z,0.00
2022-07-28T02:30:01.276Z,0.00
2022-07-28T02:31:01.343Z,0.00
2022-07-28T02:32:01.292Z,0.00
2022-07-28T02:33:02.143Z,0.00
2022-07-28T02:34:02.414Z,0.00
2022-07-28T02:35:01.292Z,0.00
2022-07-28T02:36:01.323Z,0.00
2022-07-28T02:37:01.238Z,0.00
2022-07-28T02:38:01.266Z,0.00
2022-07-28T02:39:01.244Z,0.00
2022-07-28T02:40:01.197Z,0.00
2022-07-28T02:41:01.212Z,0.00
2022-07-28T02:42:01.243Z,0.00
2022-07-28T02:43:01.242Z,0.00
2022-07-28T02:44:01.236Z,0.00
2022-07-28T02:45:01.147Z,0.00
2022-07-28T02:46:01.194Z,0.00
2022-07-28T02:47:01.247Z,0.00
2022-07-28T02:48:01.175Z,0.00
2022-07-28T02:49:01.187Z,0.00
2022-07-28T02:50:01.183Z,0.00
2022-07-28T02:51:01.127Z,0.00
2022-07-28T02:52:01.112Z,0.00
2022-07-28T02:53:01.054Z,0.00
2022-07-28T02:54:02.026Z,0.00
2022-07-28T02:55:01.044Z,0.00
2022-07-28T02:56:00.997Z,0.00
2022-07-28T02:57:01.768Z,0.00
2022-07-28T02:58:01.048Z,0.00
2022-07-28T02:59:00.964Z,0.00
2022-07-28T03:00:00.991Z,0.00
2022-07-28T03:01:01.414Z,0.00
2022-07-28T03:02:01.016Z,0.00
2022-07-28T03:03:01.016Z,0.00
2022-07-28T03:04:00.932Z,0.00
2022-07-28T03:05:00.986Z,0.00
2022-07-28T03:06:00.880Z,0.00
2022-07-28T03:07:00.913Z,0.00
2022-07-28T03:08:00.876Z,0.00
2022-07-28T03:09:00.828Z,0.00
2022-07-28T03:10:00.947Z,0.00
2022-07-28T03:11:00.863Z,0.00
2022-07-28T03:12:00.852Z,0.00
2022-07-28T03:13:00.851Z,0.00
2022-07-28T03:14:01.891Z,0.00
2022-07-28T03:15:00.837Z,0.00
2022-07-28T03:16:00.844Z,0.00
2022-07-28T03:17:00.790Z,0.00
2022-07-28T03:18:00.775Z,0.00
2022-07-28T03:19:00.760Z,0.00
2022-07-28T03:20:00.749Z,0.00
2022-07-28T03:21:00.726Z,0.00
2022-07-28T03:22:00.705Z,0.00
2022-07-28T03:23:00.772Z,0.00
2022-07-28T03:24:00.708Z,0.00
2022-07-28T03:25:00.806Z,0.00
2022-07-28T03:26:00.702Z,0.00
2022-07-28T03:27:00.692Z,0.00
2022-07-28T03:28:00.669Z,0.00
2022-07-28T03:29:00.713Z,0.00
2022-07-28T03:30:03.880Z,0.00
2022-07-28T03:31:01.713Z,0.00
2022-07-28T03:32:00.660Z,0.00
2022-07-28T03:33:00.656Z,0.00
2022-07-28T03:34:00.668Z,0.00
2022-07-28T03:35:00.684Z,0.00
2022-07-28T03:36:00.587Z,0.00
2022-07-28T03:37:00.623Z,0.00
2022-07-28T03:38:00.575Z,0.00
2022-07-28T03:39:00.569Z,0.00
2022-07-28T03:40:01.368Z,0.00
2022-07-28T03:41:00.625Z,0.00
2022-07-28T03:42:00.521Z,0.00
2022-07-28T03:43:00.490Z,0.00
2022-07-28T03:44:00.422Z,0.00
2022-07-28T03:45:00.434Z,0.00
2022-07-28T03:46:00.581Z,0.00
2022-07-28T03:47:00.433Z,0.00
2022-07-28T03:48:00.478Z,0.00
2022-07-28T03:49:01.359Z,0.00
2022-07-28T03:50:00.453Z,0.00
2022-07-28T03:51:00.525Z,0.00
2022-07-28T03:52:00.458Z,0.00
2022-07-28T03:53:00.346Z,0.00
2022-07-28T03:54:00.329Z,0.00
2022-07-28T03:55:00.313Z,0.00
2022-07-28T03:56:00.294Z,0.00
2022-07-28T03:57:00.329Z,0.00
2022-07-28T03:58:00.269Z,0.00
2022-07-28T03:59:00.294Z,0.00
2022-07-28T04:00:00.294Z,0.00
2022-07-28T04:01:00.305Z,0.00
2022-07-28T04:02:00.350Z,0.00
2022-07-28T04:03:00.285Z,0.00
2022-07-28T04:04:00.223Z,0.00
2022-07-28T04:05:00.216Z,0.00
2022-07-28T04:06:00.232Z,0.00
2022-07-28T04:07:00.164Z,0.00
2022-07-28T04:08:00.167Z,0.00
2022-07-28T04:09:00.147Z,0.00
2022-07-28T04:10:00.208Z,0.00
2022-07-28T04:11:00.103Z,0.00
2022-07-28T04:12:00.144Z,0.00
2022-07-28T04:13:00.116Z,0.00
2022-07-28T04:14:00.092Z,0.00
2022-07-28T04:15:00.136Z,0.00
2022-07-28T04:16:00.114Z,0.00
2022-07-28T04:17:00.246Z,0.00
2022-07-28T04:18:00.061Z,0.00
2022-07-28T04:19:00.061Z,0.00
2022-07-28T04:20:00.012Z,0.00
2022-07-28T04:21:00.050Z,0.00
2022-07-28T04:21:59.997Z,0.00
2022-07-28T04:22:59.994Z,5.62
2022-07-28T04:24:02.149Z,5.62
2022-07-28T04:25:00.965Z,5.62
2022-07-28T04:25:59.982Z,5.62
2022-07-28T04:27:00.719Z,5.62
2022-07-28T04:28:00.710Z,5.62
2022-07-28T04:28:59.936Z,5.62
2022-07-28T04:29:59.918Z,5.62
2022-07-28T04:30:59.964Z,5.62
2022-07-28T04:32:00.723Z,5.62
2022-07-28T04:32:59.889Z,5.62
2022-07-28T04:33:59.891Z,11.25
2022-07-28T04:35:00.912Z,11.25
2022-07-28T04:35:59.878Z,11.25
2022-07-28T04:36:59.906Z,11.25
2022-07-28T04:37:59.860Z,11.25
2022-07-28T04:38:59.893Z,11.25
2022-07-28T04:39:59.814Z,11.25
2022-07-28T04:40:59.817Z,11.25
2022-07-28T04:41:59.818Z,16.88
2022-07-28T04:42:59.818Z,16.88
2022-07-28T04:43:59.797Z,16.88
2022-07-28T04:44:59.834Z,16.88
2022-07-28T04:45:59.773Z,16.88
2022-07-28T04:46:59.767Z,16.88
2022-07-28T04:47:59.754Z,16.88
2022-07-28T04:49:00.659Z,16.88
2022-07-28T04:49:59.763Z,16.88
2022-07-28T04:50:59.752Z,16.88
2022-07-28T04:51:59.708Z,16.88
2022-07-28T04:52:59.692Z,16.88
2022-07-28T04:53:59.682Z,16.88
2022-07-28T04:54:59.695Z,16.88
2022-07-28T04:55:59.686Z,16.88
2022-07-28T04:56:59.694Z,16.88
2022-07-28T04:57:59.672Z,16.88
2022-07-28T04:58:59.629Z,16.88
2022-07-28T04:59:59.642Z,16.88
2022-07-28T05:00:59.700Z,16.88
2022-07-28T05:01:59.646Z,16.88
2022-07-28T05:02:59.618Z,16.88
2022-07-28T05:03:59.682Z,16.88
2022-07-28T05:04:59.642Z,16.88
2022-07-28T05:06:00.211Z,16.88
2022-07-28T05:06:59.602Z,16.88
2022-07-28T05:07:59.565Z,16.88
2022-07-28T05:08:59.574Z,11.25
2022-07-28T05:09:59.566Z,11.25
2022-07-28T05:10:59.557Z,11.25
2022-07-28T05:11:59.494Z,11.25
2022-07-28T05:13:00.505Z,11.25
2022-07-28T05:14:00.761Z,22.50
2022-07-28T05:15:00.340Z,28.12
2022-07-28T05:15:59.670Z,28.12
2022-07-28T05:16:59.537Z,28.12
2022-07-28T05:17:59.462Z,28.12
2022-07-28T05:18:59.480Z,28.12
2022-07-28T05:19:59.490Z,28.12
2022-07-28T05:20:59.431Z,28.12
2022-07-28T05:21:59.414Z,28.12
2022-07-28T05:22:59.473Z,28.12
2022-07-28T05:23:59.427Z,33.75
2022-07-28T05:24:59.452Z,33.75
2022-07-28T05:25:59.397Z,33.75
2022-07-28T05:26:59.484Z,33.75
2022-07-28T05:28:00.321Z,33.75
2022-07-28T05:28:59.502Z,33.75
2022-07-28T05:29:59.347Z,33.75
2022-07-28T05:30:59.324Z,33.75
2022-07-28T05:31:59.360Z,33.75
2022-07-28T05:32:59.293Z,33.75
2022-07-28T05:33:59.305Z,33.75
2022-07-28T05:34:59.773Z,39.38
2022-07-28T05:35:59.276Z,50.62
2022-07-28T05:36:59.258Z,168.75
2022-07-28T05:37:59.296Z,309.38
2022-07-28T05:38:59.246Z,118.12
2022-07-28T05:39:59.246Z,388.12
2022-07-28T05:40:59.254Z,995.62
2022-07-28T05:41:59.254Z,1130.62
2022-07-28T05:42:59.228Z,1006.88
2022-07-28T05:43:59.180Z,427.50
2022-07-28T05:44:59.177Z,84.38
2022-07-28T05:45:59.176Z,90.00
2022-07-28T05:46:59.173Z,376.88
2022-07-28T05:47:59.140Z,1080.00
2022-07-28T05:48:59.229Z,978.75
2022-07-28T05:49:59.130Z,528.75
2022-07-28T05:50:59.126Z,95.62
2022-07-28T05:51:59.089Z,56.25
2022-07-28T05:52:59.084Z,50.62
2022-07-28T05:53:59.131Z,50.62
2022-07-28T05:54:59.230Z,50.62
2022-07-28T05:56:00.742Z,50.62
2022-07-28T05:56:59.029Z,50.62
2022-07-28T05:57:59.042Z,73.12
2022-07-28T05:58:59.047Z,140.62
2022-07-28T05:59:58.998Z,56.25
2022-07-28T06:00:59.062Z,326.25
2022-07-28T06:01:59.067Z,624.38
2022-07-28T06:02:58.972Z,562.50
2022-07-28T06:04:25.867Z,140.62
2022-07-28T06:05:00.980Z,67.50
2022-07-28T06:06:14.468Z,78.75
2022-07-28T06:06:59.952Z,118.12
2022-07-28T06:07:58.948Z,320.62
2022-07-28T06:08:58.940Z,275.62
2022-07-28T06:09:58.881Z,343.12
2022-07-28T06:10:58.912Z,635.62
2022-07-28T06:11:58.876Z,995.62
2022-07-28T06:12:58.837Z,635.62
2022-07-28T06:13:59.854Z,168.75
2022-07-28T06:14:58.832Z,123.75
2022-07-28T06:15:58.865Z,163.12
2022-07-28T06:16:58.827Z,523.12
2022-07-28T06:17:58.815Z,1018.12
2022-07-28T06:18:58.812Z,956.25
2022-07-28T06:19:58.784Z,624.38
2022-07-28T06:20:58.727Z,573.75
2022-07-28T06:21:58.795Z,343.12
2022-07-28T06:22:58.743Z,315.00
2022-07-28T06:23:58.907Z,230.62
2022-07-28T06:24:59.782Z,151.88
2022-07-28T06:25:58.706Z,73.12
2022-07-28T06:26:58.788Z,67.50
2022-07-28T06:27:58.690Z,67.50
2022-07-28T06:28:58.647Z,67.50
2022-07-28T06:29:58.678Z,73.12
2022-07-28T06:30:58.731Z,67.50
2022-07-28T06:31:58.817Z,73.12
2022-07-28T06:32:58.619Z,73.12
2022-07-28T06:33:58.620Z,73.12
2022-07-28T06:34:58.621Z,73.12
2022-07-28T06:35:58.632Z,73.12
2022-07-28T06:36:58.569Z,73.12
2022-07-28T06:37:58.609Z,73.12
2022-07-28T06:38:58.567Z,73.12
2022-07-28T06:39:58.585Z,67.50
2022-07-28T06:40:58.528Z,73.12
2022-07-28T06:41:58.546Z,73.12
2022-07-28T06:42:58.537Z,73.12
2022-07-28T06:43:58.507Z,73.12
2022-07-28T06:44:59.914Z,67.50
2022-07-28T06:45:59.488Z,61.88
2022-07-28T06:46:58.528Z,61.88
2022-07-28T06:47:59.236Z,67.50
2022-07-28T06:48:58.502Z,67.50
2022-07-28T06:49:58.461Z,67.50
2022-07-28T06:50:58.476Z,67.50
2022-07-28T06:51:58.371Z,73.12
2022-07-28T06:52:58.814Z,73.12
2022-07-28T06:53:58.401Z,78.75
2022-07-28T06:54:59.052Z,78.75
2022-07-28T06:55:58.343Z,84.38
2022-07-28T06:56:58.322Z,84.38
2022-07-28T06:57:58.341Z,112.50
2022-07-28T06:58:58.308Z,230.62
2022-07-28T06:59:58.329Z,146.25
2022-07-28T07:00:58.373Z,247.50
2022-07-28T07:01:58.249Z,708.75
2022-07-28T07:02:58.278Z,613.12
2022-07-28T07:03:58.323Z,371.25
2022-07-28T07:04:58.276Z,191.25
2022-07-28T07:05:58.273Z,140.62
2022-07-28T07:06:58.225Z,129.38
2022-07-28T07:07:58.193Z,146.25
2022-07-28T07:08:58.177Z,337.50
2022-07-28T07:09:58.173Z,1192.50
2022-07-28T07:10:58.197Z,1901.25
2022-07-28T07:12:00.088Z,1816.88
2022-07-28T07:12:58.263Z,1687.50
2022-07-28T07:13:58.150Z,1501.88
2022-07-28T07:14:58.115Z,1901.25
2022-07-28T07:15:58.300Z,2047.50
2022-07-28T07:16:58.101Z,2053.12
2022-07-28T07:17:58.219Z,2188.12
2022-07-28T07:18:58.166Z,2199.38
2022-07-28T07:19:58.026Z,2210.62
2022-07-28T07:20:58.051Z,2266.88
2022-07-28T07:21:58.058Z,1569.38
2022-07-28T07:22:58.045Z,1068.75
2022-07-28T07:23:58.026Z,2008.12
2022-07-28T07:24:58.062Z,1822.50
2022-07-28T07:25:58.012Z,1760.62
2022-07-28T07:26:58.011Z,596.25
2022-07-28T07:27:57.982Z,163.12
2022-07-28T07:28:57.947Z,135.00
2022-07-28T07:29:57.954Z,286.88
2022-07-28T07:30:59.156Z,765.00
2022-07-28T07:31:58.030Z,1051.88
2022-07-28T07:32:57.918Z,163.12
2022-07-28T07:33:57.912Z,438.75
2022-07-28T07:34:57.967Z,1507.50
2022-07-28T07:35:57.910Z,1501.88
2022-07-28T07:36:57.867Z,360.00
2022-07-28T07:37:57.887Z,939.38
2022-07-28T07:38:57.842Z,1231.88
2022-07-28T07:39:57.831Z,703.12
2022-07-28T07:40:57.841Z,613.12
2022-07-28T07:41:57.813Z,236.25
2022-07-28T07:42:57.790Z,213.75
2022-07-28T07:43:57.798Z,213.75
2022-07-28T07:44:58.761Z,129.38
2022-07-28T07:45:57.762Z,691.88
2022-07-28T07:46:57.895Z,658.12
2022-07-28T07:47:57.754Z,511.88
2022-07-28T07:48:58.047Z,1456.88
2022-07-28T07:49:57.713Z,1760.62
2022-07-28T07:50:57.699Z,1743.75
2022-07-28T07:51:57.725Z,1783.12
2022-07-28T07:52:57.670Z,1788.75
2022-07-28T07:53:57.676Z,1822.50
2022-07-28T07:54:58.719Z,1704.38
2022-07-28T07:55:57.630Z,1766.25
2022-07-28T07:56:57.640Z,270.00
2022-07-28T07:57:57.626Z,84.38
2022-07-28T07:58:57.619Z,84.38
2022-07-28T07:59:57.602Z,84.38
2022-07-28T08:00:57.574Z,78.75
2022-07-28T08:01:57.613Z,78.75
2022-07-28T08:02:57.659Z,78.75
2022-07-28T08:03:57.539Z,78.75
2022-07-28T08:04:57.600Z,78.75
2022-07-28T08:05:57.555Z,78.75
2022-07-28T08:06:57.567Z,78.75
2022-07-28T08:07:57.491Z,78.75
2022-07-28T08:08:57.580Z,73.12
2022-07-28T08:09:57.526Z,78.75
2022-07-28T08:10:57.488Z,78.75
2022-07-28T08:11:57.478Z,78.75
2022-07-28T08:12:57.466Z,78.75
2022-07-28T08:13:57.454Z,78.75
2022-07-28T08:14:57.483Z,78.75
2022-07-28T08:15:57.523Z,78.75
2022-07-28T08:16:57.423Z,78.75
2022-07-28T08:17:57.396Z,73.12
2022-07-28T08:18:57.394Z,73.12
2022-07-28T08:19:57.389Z,78.75
2022-07-28T08:20:57.385Z,78.75
2022-07-28T08:21:57.378Z,78.75
2022-07-28T08:22:57.322Z,78.75
2022-07-28T08:23:57.333Z,78.75
2022-07-28T08:24:57.333Z,78.75
2022-07-28T08:25:57.340Z,78.75
2022-07-28T08:26:57.303Z,78.75
2022-07-28T08:27:57.365Z,78.75
2022-07-28T08:28:57.283Z,78.75
2022-07-28T08:29:57.279Z,84.38
2022-07-28T08:30:58.255Z,78.75
2022-07-28T08:31:57.238Z,84.38
2022-07-28T08:32:57.420Z,84.38
2022-07-28T08:33:57.211Z,84.38
2022-07-28T08:35:22.602Z,84.38
2022-07-28T08:35:59.221Z,84.38
2022-07-28T08:36:57.187Z,84.38
2022-07-28T08:37:57.322Z,84.38
2022-07-28T08:38:57.694Z,84.38
2022-07-28T08:39:57.147Z,84.38
2022-07-28T08:40:57.149Z,84.38
2022-07-28T08:41:57.141Z,84.38
2022-07-28T08:42:57.161Z,84.38
2022-07-28T08:43:57.149Z,84.38
2022-07-28T08:44:57.102Z,84.38
2022-07-28T08:45:58.622Z,84.38
2022-07-28T08:46:58.192Z,90.00
2022-07-28T08:48:08.131Z,669.38
2022-07-28T08:48:59.089Z,511.88
2022-07-28T08:49:57.105Z,90.00
2022-07-28T08:50:57.027Z,90.00
2022-07-28T08:51:57.032Z,106.88
2022-07-28T08:52:57.046Z,135.00
2022-07-28T08:53:57.012Z,196.88
2022-07-28T08:54:56.995Z,202.50
2022-07-28T08:55:56.971Z,101.25
2022-07-28T08:56:56.977Z,185.62
2022-07-28T08:57:56.959Z,708.75
2022-07-28T08:58:56.966Z,213.75
2022-07-28T08:59:57.001Z,101.25
2022-07-28T09:00:56.940Z,106.88
2022-07-28T09:01:58.021Z,123.75
2022-07-28T09:02:57.978Z,101.25
2022-07-28T09:03:56.894Z,635.62
2022-07-28T09:04:56.889Z,1687.50
2022-07-28T09:05:56.890Z,106.88
2022-07-28T09:06:56.854Z,112.50
2022-07-28T09:07:56.883Z,286.88
2022-07-28T09:08:56.880Z,129.38
2022-07-28T09:10:02.491Z,118.12
2022-07-28T09:10:57.832Z,129.38
2022-07-28T09:11:56.810Z,112.50
2022-07-28T09:12:56.814Z,112.50
2022-07-28T09:13:56.809Z,129.38
2022-07-28T09:14:56.812Z,298.12
2022-07-28T09:15:56.789Z,106.88
2022-07-28T09:16:56.780Z,112.50
2022-07-28T09:17:56.855Z,315.00
2022-07-28T09:18:56.778Z,945.00
2022-07-28T09:19:56.727Z,129.38
2022-07-28T09:20:57.728Z,123.75
2022-07-28T09:21:56.699Z,135.00
2022-07-28T09:22:56.682Z,135.00
2022-07-28T09:23:56.682Z,140.62
2022-07-28T09:24:56.698Z,1018.12
2022-07-28T09:25:56.655Z,157.50
2022-07-28T09:26:56.639Z,180.00
2022-07-28T09:27:56.632Z,180.00
2022-07-28T09:28:56.630Z,315.00
2022-07-28T09:29:56.638Z,478.12
2022-07-28T09:30:56.604Z,1563.75
2022-07-28T09:31:57.256Z,163.12
2022-07-28T09:32:56.575Z,393.75
2022-07-28T09:33:56.591Z,123.75
2022-07-28T09:34:56.562Z,129.38
2022-07-28T09:35:56.608Z,129.38
2022-07-28T09:36:56.541Z,551.25
2022-07-28T09:37:56.562Z,118.12
2022-07-28T09:38:56.527Z,135.00
2022-07-28T09:39:56.538Z,135.00
2022-07-28T09:40:56.528Z,225.00
2022-07-28T09:41:56.554Z,135.00
2022-07-28T09:42:56.498Z,123.75
2022-07-28T09:43:56.470Z,135.00
2022-07-28T09:45:21.172Z,1074.38
2022-07-28T09:45:58.495Z,129.38
2022-07-28T09:46:56.732Z,146.25
2022-07-28T09:47:56.648Z,140.62
2022-07-28T09:48:56.699Z,123.75
2022-07-28T09:49:56.482Z,118.12
2022-07-28T09:50:56.414Z,118.12
2022-07-28T09:51:56.440Z,118.12
2022-07-28T09:52:56.363Z,118.12
2022-07-28T09:53:56.406Z,118.12
2022-07-28T09:54:56.368Z,118.12
2022-07-28T09:55:56.345Z,112.50
2022-07-28T09:56:56.340Z,112.50
2022-07-28T09:57:56.357Z,112.50
2022-07-28T09:58:57.374Z,118.12
2022-07-28T09:59:56.306Z,118.12
2022-07-28T10:00:56.279Z,118.12
2022-07-28T10:01:56.636Z,112.50
2022-07-28T10:02:56.360Z,118.12
2022-07-28T10:03:56.255Z,118.12
2022-07-28T10:04:56.257Z,118.12
2022-07-28T10:05:56.220Z,112.50
2022-07-28T10:06:56.293Z,118.12
2022-07-28T10:07:56.209Z,118.12
2022-07-28T10:08:57.192Z,123.75
2022-07-28T10:09:56.724Z,118.12
2022-07-28T10:10:56.205Z,112.50
2022-07-28T10:11:56.180Z,118.12
2022-07-28T10:12:56.157Z,123.75
2022-07-28T10:13:56.171Z,123.75
2022-07-28T10:14:56.209Z,123.75
2022-07-28T10:15:56.188Z,123.75
2022-07-28T10:16:56.165Z,123.75
2022-07-28T10:17:56.124Z,112.50
2022-07-28T10:18:56.088Z,118.12
2022-07-28T10:19:56.179Z,123.75
2022-07-28T10:20:56.052Z,129.38
2022-07-28T10:21:56.096Z,129.38
2022-07-28T10:22:56.073Z,129.38
2022-07-28T10:23:56.039Z,129.38
2022-07-28T10:24:56.028Z,135.00
2022-07-28T10:25:55.998Z,230.62
2022-07-28T10:26:55.997Z,393.75
2022-07-28T10:27:56.021Z,180.00
2022-07-28T10:28:55.977Z,416.25
2022-07-28T10:29:55.996Z,213.75
2022-07-28T10:30:56.005Z,151.88
2022-07-28T10:31:55.991Z,146.25
2022-07-28T10:32:55.960Z,157.50
2022-07-28T10:33:55.971Z,157.50
2022-07-28T10:34:55.907Z,157.50
2022-07-28T10:35:56.918Z,168.75
2022-07-28T10:36:55.962Z,270.00
2022-07-28T10:37:55.913Z,393.75
2022-07-28T10:38:55.898Z,202.50
2022-07-28T10:39:55.850Z,219.38
2022-07-28T10:40:55.894Z,427.50
2022-07-28T10:41:55.857Z,196.88
2022-07-28T10:42:55.848Z,180.00
2022-07-28T10:43:55.878Z,174.38
2022-07-28T10:44:55.832Z,174.38
2022-07-28T10:46:05.662Z,157.50
2022-07-28T10:46:57.902Z,151.88
2022-07-28T10:47:56.675Z,151.88
2022-07-28T10:48:55.832Z,146.25
2022-07-28T10:49:55.765Z,151.88
2022-07-28T10:50:55.764Z,146.25
2022-07-28T10:52:08.699Z,146.25
2022-07-28T10:52:59.482Z,168.75
2022-07-28T10:53:57.643Z,180.00
2022-07-28T10:54:55.765Z,101.25
2022-07-28T10:55:55.691Z,140.62
2022-07-28T10:56:57.304Z,106.88
2022-07-28T10:58:01.967Z,84.38
2022-07-28T10:58:59.148Z,90.00
2022-07-28T10:59:58.575Z,106.88
2022-07-28T11:01:02.030Z,163.12
2022-07-28T11:01:57.925Z,157.50
2022-07-28T11:02:55.680Z,219.38
2022-07-28T11:03:55.719Z,140.62
2022-07-28T11:04:55.629Z,135.00
2022-07-28T11:05:55.624Z,135.00
2022-07-28T11:06:55.596Z,151.88
2022-07-28T11:07:55.580Z,157.50
2022-07-28T11:08:55.609Z,163.12
2022-07-28T11:09:55.593Z,157.50
2022-07-28T11:11:07.713Z,163.12
2022-07-28T11:11:56.566Z,157.50
2022-07-28T11:12:55.543Z,163.12
2022-07-28T11:13:55.515Z,163.12
2022-07-28T11:14:55.539Z,157.50
2022-07-28T11:15:55.495Z,157.50
2022-07-28T11:16:55.524Z,157.50
2022-07-28T11:17:55.473Z,157.50
2022-07-28T11:18:55.448Z,168.75
2022-07-28T11:20:16.946Z,168.75
2022-07-28T11:20:58.058Z,157.50
2022-07-28T11:21:55.445Z,157.50
2022-07-28T11:22:55.452Z,157.50
2022-07-28T11:23:55.421Z,163.12
2022-07-28T11:24:55.432Z,163.12
2022-07-28T11:25:55.464Z,163.12
2022-07-28T11:26:55.416Z,168.75
2022-07-28T11:27:55.373Z,174.38
2022-07-28T11:28:55.390Z,174.38
2022-07-28T11:29:55.400Z,174.38
2022-07-28T11:30:55.484Z,405.00
2022-07-28T11:31:55.324Z,168.75
2022-07-28T11:32:55.385Z,168.75
2022-07-28T11:33:55.315Z,281.25
2022-07-28T11:34:55.348Z,180.00
2022-07-28T11:35:55.307Z,168.75
2022-07-28T11:36:55.283Z,168.75
2022-07-28T11:37:55.289Z,174.38
2022-07-28T11:38:55.272Z,163.12
2022-07-28T11:39:55.248Z,258.75
2022-07-28T11:40:55.304Z,180.00
2022-07-28T11:41:55.258Z,163.12
2022-07-28T11:42:55.263Z,168.75
2022-07-28T11:43:55.254Z,157.50
2022-07-28T11:44:55.206Z,157.50
2022-07-28T11:45:56.362Z,146.25
2022-07-28T11:46:56.355Z,129.38
2022-07-28T11:47:55.333Z,163.12
2022-07-28T11:48:56.354Z,101.25
2022-07-28T11:49:55.273Z,163.12
2022-07-28T11:50:55.136Z,168.75
2022-07-28T11:51:55.138Z,168.75
2022-07-28T11:52:55.123Z,174.38
2022-07-28T11:53:55.246Z,174.38
2022-07-28T11:54:55.149Z,174.38
2022-07-28T11:56:02.735Z,219.38
2022-07-28T11:56:56.186Z,168.75
2022-07-28T11:57:55.109Z,196.88
2022-07-28T11:58:55.817Z,196.88
2022-07-28T11:59:55.050Z,168.75
2022-07-28T12:00:55.084Z,168.75
2022-07-28T12:01:55.077Z,168.75
2022-07-28T12:02:55.064Z,157.50
2022-07-28T12:03:56.607Z,168.75
2022-07-28T12:04:55.037Z,163.12
2022-07-28T12:05:54.990Z,180.00
2022-07-28T12:06:55.008Z,180.00
2022-07-28T12:07:54.982Z,174.38
2022-07-28T12:08:54.954Z,225.00
2022-07-28T12:09:54.968Z,168.75
2022-07-28T12:10:55.923Z,157.50
2022-07-28T12:11:54.969Z,157.50
2022-07-28T12:12:54.912Z,146.25
2022-07-28T12:13:54.882Z,174.38
2022-07-28T12:14:54.938Z,298.12
2022-07-28T12:15:54.863Z,174.38
2022-07-28T12:16:54.891Z,168.75
2022-07-28T12:17:54.853Z,168.75
2022-07-28T12:18:54.926Z,157.50
2022-07-28T12:19:54.848Z,264.38
2022-07-28T12:20:55.601Z,174.38
2022-07-28T12:21:55.182Z,264.38
2022-07-28T12:22:54.814Z,174.38
2022-07-28T12:23:54.872Z,343.12
2022-07-28T12:24:54.772Z,174.38
2022-07-28T12:25:54.811Z,174.38
2022-07-28T12:26:54.792Z,208.12
2022-07-28T12:27:54.811Z,174.38
2022-07-28T12:28:54.746Z,191.25
2022-07-28T12:29:54.740Z,180.00
2022-07-28T12:30:54.687Z,191.25
2022-07-28T12:31:54.826Z,202.50
2022-07-28T12:32:54.718Z,253.12
2022-07-28T12:33:54.686Z,270.00
2022-07-28T12:34:54.795Z,399.38
2022-07-28T12:35:54.734Z,371.25
2022-07-28T12:36:55.169Z,360.00
2022-07-28T12:37:54.752Z,388.12
2022-07-28T12:38:54.644Z,393.75
2022-07-28T12:39:55.614Z,416.25
2022-07-28T12:40:54.627Z,466.88
2022-07-28T12:41:54.744Z,421.88
2022-07-28T12:42:54.605Z,540.00
2022-07-28T12:43:54.595Z,618.75
2022-07-28T12:44:54.556Z,466.88
2022-07-28T12:45:54.618Z,365.62
2022-07-28T12:46:54.543Z,348.75
2022-07-28T12:47:54.591Z,348.75
2022-07-28T12:48:54.544Z,337.50